Terminal Aerodrome Forecast
Issued by NWS

Home | Current Version | Previous Version | Text Only | Print | Product List | Glossary Off
Versions: 1 2 3 4 5 6 7 8 9 10 11 12 13 14 15 16 17 18 19

000
FTUS43 KBIS 092339
TAFJMS
TAF
KJMS 092339Z 1000/1024 07007KT P6SM OVC045
     FM100600 11006KT P6SM VCSH OVC025
     FM100800 13009KT 2SM -SN BR OVC012
     FM101400 13010KT 3SM -SN BR OVC008
     FM101800 12010KT P6SM -SN OVC015=

USA.gov is the U.S. government's official web portal to all federal, state and local government web resources and services.